Souris, Canada
Current Conditions -  °F | °C
As of 11:00 PM on Tuesday 21 Oct 2014 (Local Time) from CYYG Reporting Station
Broken Clouds Broken Clouds  
Wind Chill: 34°   Ceiling: 12000
Heat Index: 37°   Visibility: 15mi
Dew Point: 34°   Wind: 5mph
Humidity: 87%   Direction: 60°ENE
Pressure: 30.29"   Gusts: NA
Location:  46.35°N, 62.25°W
Report Text: CYYG 220200Z 06004KT 15SM BKN120 03/01 A3029 RMK AC6 SLP260
Loading
Personal Weather Stations






























Interactive Weather Map
Tropical Storm Tracking
New forecast layout! Learn more

10-Day Weather Forecast

Advertisements
Track Severe Weather on mobile